Terminal Aerodrome Forecast
Issued by NWS Upton, NY

Home | Current Version | Previous Version | Text Only | Print | Product List | Glossary On
Versions: 1 2 3 4 5 6 7 8 9 10 11 12 13 14 15 16 17 18 19 20 21 22 23 24 25 26 27 28 29 30 31 32 33 34 35 36 37 38 39 40 41
747
FTUS41 KOKX 180815 AAC
TAFLGA
TAF AMD
KLGA 180815Z 1808/1912 30008KT 4SM BR BKN006
      TEMPO 1808/1810 6SM BR SCT006 BKN025
     FM181000 30012KT P6SM SCT008 BKN080
     FM181300 32015G25KT P6SM FEW035
     FM181800 29010KT P6SM SKC
     FM182200 26006KT P6SM FEW250
     FM190500 17004KT P6SM SCT250=

USA.gov is the U.S. government's official web portal to all federal, state and local government web resources and services.